Time;durP1;ratioP1;P1;durP2;ratioP2;P2;SDS_P1;SDS_P2;PMS_P1;PMS_P2;Temp;Humidity;BMP_temperature;BMP_pressure;BME280_temperature;BME280_humidity;BME280_pressure;Samples;Min_cycle;Max_cycle;Signal;HPM_P1;HPM_P2
2021/10/18 00:02:20;;;;;;;5.72;3.08;;;;;;;8.78;100.00;97576.97;5025494;28;20064;-71
2021/10/18 00:04:47;;;;;;;9.10;3.85;;;;;;;8.69;100.00;97570.75;5023634;28;20509;-70
2021/10/18 00:07:15;;;;;;;6.85;3.33;;;;;;;8.63;100.00;97575.69;5025112;28;20518;-71
2021/10/18 00:09:42;;;;;;;5.00;3.30;;;;;;;8.62;100.00;97574.09;5025470;28;20072;-71
2021/10/18 00:12:09;;;;;;;5.30;2.97;;;;;;;6.17;100.00;97197.03;5024970;28;20045;-71
2021/10/18 00:14:36;;;;;;;7.25;3.75;;;;;;;8.62;100.00;97567.75;5024908;28;20045;-71
2021/10/18 00:17:02;;;;;;;6.75;3.53;;;;;;;8.64;100.00;97570.97;5025145;28;20060;-70
2021/10/18 00:19:29;;;;;;;5.45;2.85;;;;;;;8.66;100.00;97574.22;5025031;28;20055;-71
2021/10/18 00:21:56;;;;;;;6.45;3.72;;;;;;;8.61;100.00;97571.66;5024893;28;20045;-69
2021/10/18 00:24:23;;;;;;;5.55;3.40;;;;;;;8.48;100.00;97562.56;5025054;28;20202;-72
2021/10/18 00:26:50;;;;;;;5.72;3.22;;;;;;;8.59;100.00;97557.41;5024859;28;20054;-72
2021/10/18 00:29:16;;;;;;;4.78;2.65;;;;;;;8.11;100.00;97496.63;5025216;28;20700;-72
2021/10/18 00:31:43;;;;;;;4.68;2.63;;;;;;;8.46;100.00;97567.63;5025342;28;20215;-72
2021/10/18 00:34:10;;;;;;;5.20;2.53;;;;;;;8.35;100.00;97569.22;5023773;28;20054;-72
2021/10/18 00:36:37;;;;;;;7.97;2.70;;;;;;;8.06;100.00;97505.13;5024467;28;20065;-69
2021/10/18 00:39:04;;;;;;;4.28;2.42;;;;;;;8.47;100.00;97565.69;5025054;28;20049;-73
2021/10/18 00:41:32;;;;;;;6.20;2.30;;;;;;;8.63;100.00;97580.41;5024961;28;20053;-72
2021/10/18 00:43:59;;;;;;;5.25;2.40;;;;;;;8.70;100.00;97564.88;5023159;28;20132;-72
2021/10/18 00:46:26;;;;;;;5.70;3.28;;;;;;;8.72;100.00;97572.81;5024444;28;20053;-72
2021/10/18 00:48:54;;;;;;;4.70;2.20;;;;;;;8.73;100.00;97566.13;5023149;28;20088;-72
2021/10/18 00:51:23;;;;;;;6.63;2.55;;;;;;;8.75;100.00;97561.06;5024394;28;20532;-72
2021/10/18 00:53:52;;;;;;;7.88;3.08;;;;;;;8.79;100.00;97567.50;5023467;28;20092;-72
2021/10/18 00:56:19;;;;;;;5.60;2.80;;;;;;;8.50;100.00;97494.03;5022978;28;20225;-72
2021/10/18 00:58:48;;;;;;;5.03;2.95;;;;;;;8.85;100.00;97566.16;5024416;28;20493;-70
2021/10/18 01:01:15;;;;;;;4.88;2.92;;;;;;;8.44;100.00;97513.91;5023728;28;20059;-72
2021/10/18 01:03:43;;;;;;;8.82;3.42;;;;;;;8.85;100.00;97563.38;5024433;28;20056;-70
2021/10/18 01:06:10;;;;;;;14.70;7.05;;;;;;;8.97;100.00;97569.72;5022920;28;20060;-73
2021/10/18 01:08:37;;;;;;;13.93;6.60;;;;;;;8.67;100.00;97537.97;5023364;28;20072;-72
2021/10/18 01:11:05;;;;;;;12.48;5.78;;;;;;;8.83;100.00;97566.50;5024249;28;20057;-72
2021/10/18 01:13:33;;;;;;;10.27;4.88;;;;;;;8.70;100.00;97544.72;5024546;28;20057;-71
2021/10/18 01:16:01;;;;;;;8.15;3.53;;;;;;;8.57;100.00;97538.41;5023799;28;20061;-70
2021/10/18 01:18:28;;;;;;;6.03;3.58;;;;;;;8.69;100.00;97573.50;5024405;28;20076;-70
2021/10/18 01:20:55;;;;;;;4.72;3.08;;;;;;;9.03;100.00;97556.44;5023693;28;20053;-68
2021/10/18 01:23:22;;;;;;;5.70;3.75;;;;;;;9.03;100.00;97611.72;5024297;28;20500;-70
2021/10/18 01:25:49;;;;;;;5.18;2.42;;;;;;;9.03;100.00;97564.72;5022528;28;20056;-70
2021/10/18 01:28:16;;;;;;;6.65;1.88;;;;;;;8.75;100.00;97503.06;5022740;28;20527;-72
2021/10/18 01:30:43;;;;;;;4.82;2.55;;;;;;;8.80;100.00;97502.84;5022687;28;20061;-72
2021/10/18 01:33:10;;;;;;;3.85;2.53;;;;;;;8.73;100.00;97497.09;5022496;28;20139;-70
2021/10/18 01:35:38;;;;;;;2.80;2.10;;;;;;;9.00;100.00;97546.09;5023795;28;20062;-71
2021/10/18 01:38:05;;;;;;;3.75;2.45;;;;;;;8.63;100.00;97508.63;5024288;28;20061;-71
2021/10/18 01:40:32;;;;;;;4.47;2.60;;;;;;;8.56;100.00;97520.25;5023842;28;20057;-71
2021/10/18 01:42:59;;;;;;;7.00;3.20;;;;;;;8.68;100.00;97535.97;5022709;28;20064;-70
2021/10/18 01:45:26;;;;;;;7.25;3.45;;;;;;;8.85;100.00;97560.63;5022388;28;20063;-71
2021/10/18 01:47:52;;;;;;;4.30;2.53;;;;;;;8.92;100.00;97552.53;5024004;28;20150;-71
2021/10/18 01:50:22;;;;;;;4.45;2.58;;;;;;;8.88;100.00;97559.94;5023561;28;20055;-70
2021/10/18 01:52:50;;;;;;;4.63;3.13;;;;;;;8.90;100.00;97563.13;5023777;28;20544;-72
2021/10/18 01:55:18;;;;;;;8.38;3.40;;;;;;;8.96;100.00;97562.56;5023578;28;20080;-71
2021/10/18 01:57:46;;;;;;;4.50;3.10;;;;;;;8.62;100.00;97529.09;5023723;28;20060;-72
2021/10/18 02:00:14;;;;;;;7.80;3.00;;;;;;;8.89;100.00;97544.94;5023915;28;20957;-72
2021/10/18 02:02:43;;;;;;;4.25;2.28;;;;;;;8.84;100.00;97570.03;5023607;28;20045;-72
2021/10/18 02:05:10;;;;;;;2.85;2.10;;;;;;;8.85;100.00;97560.63;5027032;28;20091;-71
2021/10/18 02:07:37;;;;;;;1.95;1.60;;;;;;;8.88;100.00;97565.44;5027677;28;20468;-71
2021/10/18 02:10:04;;;;;;;2.95;2.10;;;;;;;8.99;100.00;97572.91;5027290;28;20436;-72
2021/10/18 02:12:31;;;;;;;2.13;1.73;;;;;;;8.79;100.00;97528.84;5026025;28;20519;-72
2021/10/18 02:14:58;;;;;;;2.80;1.40;;;;;;;8.77;100.00;97526.41;5027532;28;20049;-72
2021/10/18 02:17:25;;;;;;;3.08;1.98;;;;;;;9.05;100.00;97570.72;5027578;28;20062;-72
2021/10/18 02:19:51;;;;;;;3.15;1.73;;;;;;;9.09;100.00;97579.91;5028101;28;20076;-72
2021/10/18 02:22:18;;;;;;;2.83;1.73;;;;;;;9.01;100.00;97542.16;5027800;28;20057;-71
2021/10/18 02:24:45;;;;;;;3.20;2.20;;;;;;;6.70;100.00;97172.16;5025990;28;20057;-73
2021/10/18 02:27:11;;;;;;;3.03;1.80;;;;;;;9.27;100.00;97572.16;5027462;28;20434;-72
2021/10/18 02:29:38;;;;;;;2.75;2.13;;;;;;;9.25;100.00;97575.28;5027459;28;20065;-72
2021/10/18 02:32:05;;;;;;;2.78;1.80;;;;;;;8.89;100.00;97500.75;5027701;28;20496;-72
2021/10/18 02:34:32;;;;;;;3.92;1.98;;;;;;;8.70;100.00;97470.16;5027683;28;20059;-70
2021/10/18 02:36:59;;;;;;;4.68;2.03;;;;;;;8.90;100.00;97518.94;5025485;28;20095;-73
2021/10/18 02:39:26;;;;;;;2.47;1.60;;;;;;;9.28;100.00;97585.66;5026669;28;20349;-70
2021/10/18 02:41:52;;;;;;;3.03;1.40;;;;;;;9.24;100.00;97579.22;5025382;28;20053;-71
2021/10/18 02:44:19;;;;;;;2.53;1.48;;;;;;;9.16;100.00;97577.38;5026826;28;20045;-70
2021/10/18 02:46:46;;;;;;;3.35;1.52;;;;;;;9.16;100.00;97577.38;5025216;28;20050;-70
2021/10/18 02:49:13;;;;;;;4.05;1.80;;;;;;;9.14;100.00;97574.16;5026938;28;20058;-72
2021/10/18 02:51:39;;;;;;;1.95;1.63;;;;;;;9.07;100.00;97574.75;5026566;28;20428;-70
2021/10/18 02:54:07;;;;;;;7.50;1.92;;;;;;;9.02;100.00;97568.66;5025413;28;20493;-70
2021/10/18 02:56:33;;;;;;;3.60;2.00;;;;;;;8.96;100.00;97578.34;5025448;28;20556;-70
2021/10/18 02:59:00;;;;;;;2.25;2.05;;;;;;;8.89;100.00;97551.28;5026313;28;20049;-70
2021/10/18 03:01:27;;;;;;;6.10;3.75;;;;;;;8.60;100.00;97514.84;5026077;28;20060;-71
2021/10/18 03:03:53;;;;;;;4.97;3.60;;;;;;;9.02;100.00;97576.94;5026541;28;20049;-70
2021/10/18 03:06:20;;;;;;;5.18;2.83;;;;;;;9.11;100.00;97580.38;5026723;28;20132;-70
2021/10/18 03:08:47;;;;;;;2.85;2.20;;;;;;;9.04;100.00;97580.19;5025239;28;20053;-70
2021/10/18 03:11:14;;;;;;;4.05;1.73;;;;;;;8.97;100.00;97577.19;5026149;28;20049;-69
2021/10/18 03:13:41;;;;;;;2.63;1.67;;;;;;;8.83;100.00;97568.44;5025458;28;20076;-70
2021/10/18 03:16:08;;;;;;;3.97;2.10;;;;;;;8.98;100.00;97570.50;5026167;28;20057;-69
2021/10/18 03:18:35;;;;;;;3.28;1.50;;;;;;;8.94;100.00;97567.63;5025355;28;20069;-70
2021/10/18 03:21:02;;;;;;;4.70;2.80;;;;;;;8.99;100.00;97569.34;5026203;28;20053;-70
2021/10/18 03:23:29;;;;;;;7.32;2.55;;;;;;;9.07;100.00;97568.44;5026589;28;20056;-70
2021/10/18 03:25:56;;;;;;;4.43;2.35;;;;;;;9.05;100.00;97567.97;5026143;28;20049;-70
2021/10/18 03:28:23;;;;;;;3.80;2.00;;;;;;;9.10;100.00;97578.78;5024701;28;20049;-71
2021/10/18 03:30:50;;;;;;;13.27;8.00;;;;;;;8.54;100.00;97505.16;5024635;28;20054;-70
2021/10/18 03:33:17;;;;;;;16.35;9.38;;;;;;;9.17;100.00;97579.00;5026392;28;20149;-71
2021/10/18 03:35:44;;;;;;;14.68;7.95;;;;;;;9.20;100.00;97586.56;5026192;28;20085;-70
2021/10/18 03:38:11;;;;;;;11.45;6.25;;;;;;;9.14;100.00;97580.50;5024502;28;20412;-71
2021/10/18 03:40:38;;;;;;;6.60;3.97;;;;;;;9.12;100.00;97584.75;5024328;28;20057;-70
2021/10/18 03:43:04;;;;;;;6.97;4.22;;;;;;;9.20;100.00;97581.06;5025473;28;20049;-68
2021/10/18 03:45:31;;;;;;;6.07;3.47;;;;;;;9.27;100.00;97581.28;5026053;28;20528;-69
2021/10/18 03:47:58;;;;;;;7.00;3.58;;;;;;;9.02;100.00;97535.50;5026570;28;20056;-69
2021/10/18 03:50:24;;;;;;;11.07;4.20;;;;;;;8.88;100.00;97508.22;5025721;28;20496;-69
2021/10/18 03:52:51;;;;;;;10.05;3.65;;;;;;;9.35;100.00;97585.88;5026372;28;20061;-70
2021/10/18 03:55:18;;;;;;;6.93;3.75;;;;;;;9.23;100.00;97549.97;5024503;28;20053;-70
2021/10/18 03:57:44;;;;;;;6.35;4.55;;;;;;;9.46;100.00;97581.47;5025789;28;20053;-70
2021/10/18 04:00:11;;;;;;;7.20;4.00;;;;;;;9.43;99.90;97582.16;5025339;28;20053;-70
2021/10/18 04:02:38;;;;;;;4.90;3.22;;;;;;;9.40;100.00;97582.88;5025391;28;20133;-70
2021/10/18 04:05:05;;;;;;;4.70;3.13;;;;;;;8.81;100.00;97483.16;5025666;28;20523;-70
2021/10/18 04:07:32;;;;;;;5.53;2.70;;;;;;;9.38;100.00;97578.81;5025942;28;20053;-70
2021/10/18 04:09:58;;;;;;;4.70;2.70;;;;;;;9.39;100.00;97575.72;5025084;28;20056;-69
2021/10/18 04:12:26;;;;;;;5.32;3.10;;;;;;;9.01;100.00;97539.41;5025092;28;20045;-70
2021/10/18 04:14:53;;;;;;;5.88;3.15;;;;;;;9.34;100.00;97589.81;5025148;28;20046;-70
2021/10/18 04:17:20;;;;;;;3.72;2.50;;;;;;;8.95;100.00;97524.22;5024646;28;20056;-70
2021/10/18 04:19:46;;;;;;;5.70;3.08;;;;;;;9.09;100.00;97538.47;5025081;28;20049;-68
2021/10/18 04:22:13;;;;;;;5.50;3.05;;;;;;;9.37;100.00;97588.28;5025347;28;20777;-69
2021/10/18 04:24:40;;;;;;;15.25;4.03;;;;;;;9.30;100.00;97577.00;5025093;28;20500;-70
2021/10/18 04:27:06;;;;;;;17.02;6.80;;;;;;;9.18;100.00;97561.28;5024671;28;20049;-69
2021/10/18 04:29:33;;;;;;;21.02;8.05;;;;;;;9.43;100.00;97582.16;5023528;28;20079;-69
2021/10/18 04:32:00;;;;;;;15.50;6.63;;;;;;;9.55;100.00;97584.09;5024811;28;20053;-68
2021/10/18 04:34:27;;;;;;;9.23;4.00;;;;;;;9.12;100.00;97529.47;5023082;28;20041;-69
2021/10/18 04:36:54;;;;;;;12.73;5.32;;;;;;;9.09;100.00;97541.22;5023392;28;20069;-70
2021/10/18 04:39:21;;;;;;;14.73;6.70;;;;;;;9.01;100.00;97518.09;5024689;28;20049;-69
2021/10/18 04:41:48;;;;;;;9.43;5.60;;;;;;;9.39;100.00;97586.78;5024463;28;20055;-69
2021/10/18 04:44:15;;;;;;;10.20;4.20;;;;;;;9.48;100.00;97595.75;5024233;28;20049;-68
2021/10/18 04:46:42;;;;;;;8.45;4.38;;;;;;;9.54;100.00;97605.41;5024050;28;20046;-68
2021/10/18 04:49:09;;;;;;;11.63;4.93;;;;;;;9.59;100.00;97602.41;5024398;28;20075;-69
2021/10/18 04:51:36;;;;;;;13.20;7.65;;;;;;;9.22;100.00;97542.81;5023639;28;20049;-68
2021/10/18 04:54:03;;;;;;;23.23;14.63;;;;;;;9.67;100.00;97593.16;5024233;28;20566;-69
2021/10/18 04:56:29;;;;;;;30.17;16.00;;;;;;;9.33;100.00;97543.94;5023961;28;20076;-70
2021/10/18 04:58:57;;;;;;;27.58;15.30;;;;;;;9.72;100.00;97609.50;5024347;28;20111;-70
2021/10/18 05:01:23;;;;;;;33.05;16.42;;;;;;;9.39;100.00;97553.59;5024142;28;20064;-69
2021/10/18 05:03:50;;;;;;;27.58;14.43;;;;;;;9.75;100.00;97628.19;5024260;28;20057;-69
2021/10/18 05:06:17;;;;;;;31.83;15.95;;;;;;;9.77;100.00;97606.47;5023867;28;20049;-70
2021/10/18 05:08:43;;;;;;;33.50;18.50;;;;;;;9.87;100.00;97608.75;5024432;28;20076;-69
2021/10/18 05:11:10;;;;;;;36.20;18.73;;;;;;;9.96;100.00;97612.19;5024072;28;20053;-69
2021/10/18 05:13:37;;;;;;;19.67;11.13;;;;;;;10.16;100.00;97616.72;5024749;28;20128;-69
2021/10/18 05:16:04;;;;;;;14.00;7.38;;;;;;;10.21;97.85;97624.78;5024218;28;20440;-70
2021/10/18 05:18:30;;;;;;;14.30;7.13;;;;;;;10.13;97.69;97622.97;5024570;28;20568;-71
2021/10/18 05:20:57;;;;;;;13.90;6.60;;;;;;;10.09;97.99;97632.31;5023658;28;20064;-68
2021/10/18 05:23:24;;;;;;;19.05;8.82;;;;;;;9.59;98.01;97541.56;5022505;28;20092;-68
2021/10/18 05:25:51;;;;;;;15.00;6.32;;;;;;;10.18;97.21;97625.47;5021647;28;20595;-71
2021/10/18 05:28:17;;;;;;;12.38;6.32;;;;;;;10.23;97.94;97644.63;5023586;28;20042;-72
2021/10/18 05:30:44;;;;;;;11.40;6.10;;;;;;;10.27;97.87;97634.47;5023355;28;20045;-71
2021/10/18 05:33:11;;;;;;;17.95;6.80;;;;;;;10.30;98.29;97632.94;5023866;28;20057;-71
2021/10/18 05:35:38;;;;;;;13.68;7.05;;;;;;;9.21;96.80;97455.53;5023129;28;20089;-72
2021/10/18 05:38:05;;;;;;;10.25;5.28;;;;;;;10.23;96.70;97632.72;5019514;28;20148;-70
2021/10/18 05:40:32;;;;;;;8.10;4.53;;;;;;;10.08;96.99;97612.16;5021500;28;20073;-73
2021/10/18 05:42:59;;;;;;;8.25;4.95;;;;;;;10.15;96.74;97648.34;5019828;28;20540;-74
2021/10/18 05:45:26;;;;;;;10.40;4.70;;;;;;;10.14;98.44;97641.19;5021638;28;20749;-73
2021/10/18 05:47:53;;;;;;;7.70;4.45;;;;;;;9.99;98.66;97633.59;5021019;28;20068;-73
2021/10/18 05:50:22;;;;;;;12.57;5.95;;;;;;;9.97;97.92;97655.31;5019734;28;20041;-69
2021/10/18 05:52:49;;;;;;;8.70;5.97;;;;;;;10.17;99.33;97656.28;5022183;28;20555;-72
2021/10/18 05:55:16;;;;;;;10.02;5.50;;;;;;;9.85;97.20;97544.66;5023453;28;20061;-63
2021/10/18 05:57:52;;;;;;;11.30;6.20;;;;;;;9.76;94.67;97505.28;5021824;28;20523;-63
2021/10/18 06:00:19;;;;;;;9.48;6.10;;;;;;;10.88;92.94;97653.44;5021355;28;20045;-62
2021/10/18 06:02:47;;;;;;;9.23;6.00;;;;;;;10.94;93.19;97663.13;5022730;28;20061;-65
2021/10/18 06:05:15;;;;;;;14.95;7.70;;;;;;;10.52;91.62;97649.78;5022442;28;20588;-63
2021/10/18 06:07:42;;;;;;;12.95;7.95;;;;;;;10.81;93.04;97625.56;5021486;28;20049;-68
2021/10/18 06:10:10;;;;;;;14.30;8.25;;;;;;;11.17;93.07;97667.69;5023145;28;20061;-68
2021/10/18 06:12:39;;;;;;;18.38;10.38;;;;;;;11.14;90.43;97639.88;5022809;28;20645;-64
2021/10/18 06:15:07;;;;;;;16.33;8.52;;;;;;;11.43;90.44;97661.56;5024238;28;20055;-65
2021/10/18 06:17:35;;;;;;;16.27;8.98;;;;;;;10.98;89.64;97641.84;5029870;28;20065;-66
2021/10/18 06:20:03;;;;;;;16.50;10.15;;;;;;;11.02;89.57;97563.13;5022799;28;20152;-65
2021/10/18 06:22:31;;;;;;;15.75;8.15;;;;;;;11.02;89.77;97542.94;5022537;28;20057;-61
2021/10/18 06:24:58;;;;;;;9.90;7.03;;;;;;;11.87;89.13;97672.13;5024338;28;20053;-65
2021/10/18 06:27:25;;;;;;;10.43;6.80;;;;;;;12.02;88.94;97673.22;5022409;28;20128;-67
2021/10/18 06:29:51;;;;;;;18.42;8.90;;;;;;;11.75;87.15;97649.25;5021833;28;20528;-62
2021/10/18 06:32:18;;;;;;;17.92;11.05;;;;;;;12.33;86.83;97683.41;5022695;28;20111;-61
2021/10/18 06:34:45;;;;;;;21.60;13.00;;;;;;;11.23;86.29;97504.59;5022165;28;20045;-67
2021/10/18 06:37:12;;;;;;;24.88;13.73;;;;;;;12.27;86.15;97654.28;5021920;28;20068;-70
2021/10/18 06:39:38;;;;;;;21.98;13.93;;;;;;;12.50;84.89;97642.09;5022984;28;20053;-61
2021/10/18 06:42:05;;;;;;;23.00;13.00;;;;;;;12.08;82.68;97541.25;5022115;28;20053;-65
2021/10/18 06:44:32;;;;;;;27.05;13.52;;;;;;;12.27;80.64;97554.28;5020588;28;20065;-64
2021/10/18 06:46:59;;;;;;;23.20;12.48;;;;;;;12.59;80.13;97606.53;5022541;28;20053;-60
2021/10/18 06:49:26;;;;;;;20.77;11.80;;;;;;;13.28;80.82;97694.34;5022222;28;20558;-62
2021/10/18 06:51:55;;;;;;;21.85;12.60;;;;;;;12.53;80.24;97591.31;5025813;28;20604;-64
2021/10/18 06:54:22;;;;;;;25.58;13.48;;;;;;;13.25;81.27;97695.91;5023835;28;20053;-63
2021/10/18 06:56:49;;;;;;;24.30;14.00;;;;;;;11.53;80.83;97400.19;5020518;28;20512;-62
2021/10/18 06:59:16;;;;;;;25.27;13.50;;;;;;;13.36;81.47;97666.28;5024280;28;20052;-62
2021/10/18 07:01:43;;;;;;;30.17;14.90;;;;;;;13.84;79.87;97700.00;5025597;28;20056;-68
2021/10/18 07:04:10;;;;;;;22.70;15.00;;;;;;;13.72;78.65;97633.41;5024961;28;20123;-62
2021/10/18 07:06:37;;;;;;;27.92;14.55;;;;;;;13.75;77.92;97627.91;5023748;28;21054;-67
2021/10/18 07:09:03;;;;;;;23.60;12.90;;;;;;;14.34;76.67;97696.75;5026484;28;20519;-61
2021/10/18 07:11:30;;;;;;;23.33;12.13;;;;;;;13.96;75.45;97621.81;5025342;28;20058;-61
2021/10/18 07:13:57;;;;;;;24.65;13.65;;;;;;;14.68;74.76;97696.41;5026047;28;20049;-61
2021/10/18 07:16:24;;;;;;;23.17;12.98;;;;;;;14.33;74.16;97631.88;5024826;28;20049;-64
2021/10/18 07:18:51;;;;;;;21.50;12.40;;;;;;;14.53;73.48;97654.78;5026380;28;20060;-60
2021/10/18 07:21:18;;;;;;;21.15;11.65;;;;;;;14.86;73.82;97696.56;5025690;28;20133;-60
2021/10/18 07:23:46;;;;;;;19.65;10.68;;;;;;;12.74;73.48;97355.41;5026023;28;20057;-65
2021/10/18 07:26:13;;;;;;;13.95;8.85;;;;;;;14.67;73.13;97666.09;5023704;28;20225;-64
2021/10/18 07:28:40;;;;;;;14.45;8.10;;;;;;;14.53;74.33;97636.06;5024203;28;20064;-68
2021/10/18 07:31:07;;;;;;;11.82;7.32;;;;;;;15.09;72.53;97694.44;5022044;28;20156;-66
2021/10/18 07:33:34;;;;;;;12.88;6.40;;;;;;;13.99;72.76;97518.00;5024907;28;20431;-63
2021/10/18 07:36:08;;;;;;;10.75;6.30;;;;;;;14.05;73.31;97538.75;5025672;28;20136;-61
2021/10/18 07:38:36;;;;;;;7.70;5.40;;;;;;;14.72;72.80;97646.22;5025175;28;20136;-62
2021/10/18 07:41:04;;;;;;;12.40;5.15;;;;;;;14.50;74.14;97619.28;5024050;28;20128;-60
2021/10/18 07:43:30;;;;;;;10.18;9.18;;;;;;;14.65;73.58;97618.28;5025156;28;20087;-67
2021/10/18 07:45:57;;;;;;;9.20;5.70;;;;;;;15.17;73.53;97698.91;5023368;28;20433;-65
2021/10/18 07:48:24;;;;;;;12.05;6.13;;;;;;;14.80;73.84;97714.84;5024141;28;20052;-61
2021/10/18 07:50:51;;;;;;;10.52;6.20;;;;;;;14.49;74.41;97609.34;5025251;28;20064;-62
2021/10/18 07:53:17;;;;;;;12.82;7.75;;;;;;;14.61;72.15;97645.31;5024281;28;20060;-61
2021/10/18 07:55:44;;;;;;;15.40;10.02;;;;;;;14.12;70.86;97566.69;5024324;28;21686;-61
2021/10/18 07:58:20;;;;;;;13.30;8.05;;;;;;;14.71;71.29;97622.31;5033996;28;20045;-62
2021/10/18 08:00:49;;;;;;;21.55;13.40;;;;;;;15.35;70.47;97663.56;5024480;28;20049;-63
2021/10/18 08:03:16;;;;;;;13.80;7.35;;;;;;;15.58;69.97;97706.09;5023957;28;20419;-64
2021/10/18 08:05:42;;;;;;;11.85;7.40;;;;;;;15.21;68.81;97607.63;5024229;28;20049;-64
2021/10/18 08:08:13;;;;;;;11.95;8.10;;;;;;;15.85;69.20;97699.09;5009363;28;20419;-63
2021/10/18 08:10:40;;;;;;;39.92;35.78;;;;;;;15.78;69.44;97648.75;5021712;28;20049;-64
2021/10/18 08:13:07;;;;;;;16.00;8.57;;;;;;;16.34;68.22;97698.59;5027923;28;20046;-60
2021/10/18 08:15:35;;;;;;;14.57;8.13;;;;;;;16.10;67.62;97654.53;5024864;28;20053;-61
2021/10/18 08:18:02;;;;;;;11.68;7.38;;;;;;;15.58;67.98;97605.53;5024528;28;20045;-60
2021/10/18 08:20:28;;;;;;;12.25;6.95;;;;;;;16.22;67.97;97685.75;5025300;28;20080;-64
2021/10/18 08:22:55;;;;;;;10.63;6.85;;;;;;;16.00;68.36;97658.06;5025012;28;20572;-61
2021/10/18 08:25:22;;;;;;;10.63;7.07;;;;;;;16.46;69.13;97690.69;5025101;28;20045;-61
2021/10/18 08:27:49;;;;;;;11.55;6.70;;;;;;;16.63;67.05;97683.56;5024800;28;20056;-64
2021/10/18 08:30:16;;;;;;;12.13;7.15;;;;;;;16.94;65.58;97693.25;5023915;28;20399;-63
2021/10/18 08:32:43;;;;;;;11.43;6.97;;;;;;;16.83;65.20;97659.66;5024146;28;20054;-60
2021/10/18 08:35:11;;;;;;;10.95;7.30;;;;;;;16.53;66.68;97645.94;5024436;28;20049;-60
2021/10/18 08:40:29;;;;;;;9.68;6.97;;;;;;;17.06;65.14;97685.28;5024853;28;20057;-64
2021/10/18 08:45:40;;;;;;;8.98;6.30;;;;;;;16.81;65.62;97684.41;5024497;28;20143;-60
2021/10/18 08:48:10;;;;;;;9.88;5.63;;;;;;;16.73;66.77;97684.78;5024373;28;20445;-61
2021/10/18 08:50:38;;;;;;;13.07;7.07;;;;;;;16.13;66.40;97553.94;5024351;28;20056;-63
2021/10/18 08:53:05;;;;;;;14.20;7.80;;;;;;;16.84;67.42;97682.81;5024076;28;20445;-60
2021/10/18 08:55:37;;;;;;;10.75;6.72;;;;;;;16.70;67.27;97654.81;5023873;28;20552;-60
2021/10/18 08:58:04;;;;;;;12.93;6.63;;;;;;;16.44;66.62;97665.09;5024512;28;20057;-61
2021/10/18 09:00:41;;;;;;;11.30;6.90;;;;;;;16.69;67.61;97679.19;5024043;28;20453;-64
2021/10/18 09:03:23;;;;;;;9.25;6.07;;;;;;;16.80;66.22;97687.63;5024096;28;20060;-61
2021/10/18 09:05:51;;;;;;;13.20;6.10;;;;;;;16.83;66.24;97686.81;5023901;28;20053;-63
2021/10/18 09:08:38;;;;;;;14.38;7.10;;;;;;;16.46;65.69;97622.75;5024217;28;20049;-65
2021/10/18 09:11:11;;;;;;;13.90;7.13;;;;;;;16.48;65.97;97626.78;5023509;28;20049;-62
2021/10/18 09:13:42;;;;;;;;;;;;;;;16.94;66.10;97682.06;5024358;28;20057;-59
2021/10/18 09:16:11;;;;;;;11.75;6.43;;;;;;;17.00;65.55;97660.88;5022510;28;19971;-60
2021/10/18 09:18:40;;;;;;;12.18;6.75;;;;;;;17.33;64.73;97680.09;5024212;28;20432;-63
2021/10/18 09:21:07;;;;;;;10.85;6.60;;;;;;;17.29;65.43;97682.13;5023804;28;20049;-62
2021/10/18 09:23:38;;;;;;;12.60;6.80;;;;;;;16.96;65.51;97618.88;5022819;28;20098;-62
2021/10/18 09:26:08;;;;;;;10.93;6.82;;;;;;;17.63;64.59;97680.53;5022345;28;20053;-63
2021/10/18 09:28:36;;;;;;;12.60;6.75;;;;;;;17.74;63.05;97664.53;5023901;28;20055;-60
2021/10/18 09:31:03;;;;;;;11.23;6.47;;;;;;;17.64;62.23;97620.53;5020984;28;20048;-62
2021/10/18 09:33:37;;;;;;;12.05;6.88;;;;;;;18.05;61.55;97669.28;5025720;28;20056;-62
2021/10/18 09:36:09;;;;;;;10.35;6.65;;;;;;;18.21;61.91;97661.22;5023630;28;20057;-60
2021/10/18 09:38:36;;;;;;;10.85;6.60;;;;;;;18.06;61.23;97598.00;5022399;28;20520;-63
2021/10/18 09:41:03;;;;;;;9.77;6.97;;;;;;;18.73;60.62;97651.81;5022143;28;20535;-63
2021/10/18 09:43:54;;;;;;;10.63;7.50;;;;;;;18.88;59.62;97650.53;5023649;28;20501;-63
2021/10/18 09:46:46;;;;;;;10.35;6.75;;;;;;;19.01;58.46;97643.25;5014409;28;20049;-63
2021/10/18 10:52:54;;;;;;;20.08;11.88;;;;;;;17.92;62.74;97598.81;5026628;28;20690;-61
2021/10/18 10:55:28;;;;;;;17.10;9.65;;;;;;;17.99;63.05;97595.19;5026070;28;20317;-62
2021/10/18 10:58:00;;;;;;;9.93;6.85;;;;;;;18.12;62.30;97601.97;5025539;28;20060;-61
2021/10/18 11:00:36;;;;;;;10.15;7.90;;;;;;;18.00;62.55;97603.19;5026180;28;20084;-62
2021/10/18 11:03:31;;;;;;;20.83;11.05;;;;;;;18.16;63.00;97596.34;5025835;28;20432;-63
2021/10/18 11:06:03;;;;;;;9.63;6.20;;;;;;;18.09;61.92;97567.13;5019895;28;20123;-60
2021/10/18 11:08:36;;;;;;;8.93;6.35;;;;;;;18.03;62.94;97599.59;5025901;28;20053;-61
2021/10/18 11:11:20;;;;;;;9.88;6.57;;;;;;;17.14;63.73;97501.31;5023240;28;20420;-62
2021/10/18 11:13:47;;;;;;;12.10;8.00;;;;;;;17.60;64.98;97602.91;5021969;28;20512;-59
2021/10/18 11:16:14;;;;;;;10.27;6.95;;;;;;;17.23;64.21;97526.91;5024784;28;20061;-60
2021/10/18 11:18:41;;;;;;;7.72;5.80;;;;;;;17.57;63.12;97556.06;5025660;28;20139;-62
2021/10/18 11:21:21;;;;;;;11.85;7.00;;;;;;;17.21;62.87;97524.50;5025866;28;20076;-65
2021/10/18 11:24:04;;;;;;;14.65;8.77;;;;;;;17.90;62.81;97589.22;5026022;28;20057;-62
2021/10/18 11:26:35;;;;;;;11.50;7.90;;;;;;;18.02;63.29;97591.56;5025156;28;20159;-64
2021/10/18 11:29:05;;;;;;;8.80;6.00;;;;;;;17.98;62.50;97585.19;5025241;28;20053;-60
2021/10/18 11:31:40;;;;;;;12.10;6.65;;;;;;;17.37;61.89;97482.06;5023072;28;20511;-59
2021/10/18 11:34:08;;;;;;;13.93;8.75;;;;;;;18.16;62.89;97583.13;5025008;28;20441;-63
2021/10/18 11:36:43;;;;;;;13.32;7.55;;;;;;;18.09;62.70;97569.13;5023557;28;20084;-65
2021/10/18 11:39:13;;;;;;;11.48;6.50;;;;;;;18.33;60.84;97585.06;5024632;28;20057;-60
2021/10/18 11:41:58;;;;;;;8.35;5.32;;;;;;;18.30;59.70;97580.28;5025217;28;20057;-61
2021/10/18 11:44:47;;;;;;;7.50;5.75;;;;;;;18.49;59.18;97573.38;5024774;28;20053;-61
2021/10/18 11:47:26;;;;;;;6.40;5.18;;;;;;;18.33;58.93;97579.44;5024931;28;20237;-60
2021/10/18 11:50:26;;;;;;;6.72;4.93;;;;;;;16.51;59.06;97262.41;5017539;28;20049;-64
2021/10/18 11:52:54;;;;;;;9.55;5.85;;;;;;;18.59;59.30;97569.72;5023715;28;20428;-62
2021/10/18 11:55:25;;;;;;;13.85;7.95;;;;;;;18.63;59.73;97571.28;5023414;28;20064;-65
2021/10/18 11:57:53;;;;;;;9.88;6.53;;;;;;;18.59;59.36;97573.31;5024517;28;20053;-62
2021/10/18 12:00:25;;;;;;;7.72;5.65;;;;;;;18.73;59.34;97575.25;5007817;28;20285;-61
2021/10/18 12:02:54;;;;;;;9.00;5.93;;;;;;;18.79;59.62;97563.19;5023519;28;20057;-62
2021/10/18 12:05:23;;;;;;;9.52;6.28;;;;;;;18.53;58.92;97487.97;5023774;28;20042;-62
2021/10/18 12:07:51;;;;;;;10.77;7.30;;;;;;;19.14;58.86;97562.88;5024372;28;20060;-60
2021/10/18 12:10:21;;;;;;;8.43;6.53;;;;;;;18.51;58.60;97434.25;5024053;28;20398;-60
2021/10/18 12:13:04;;;;;;;8.80;7.03;;;;;;;18.26;57.73;97377.53;5023216;28;20041;-60
2021/10/18 12:15:35;;;;;;;7.70;6.10;;;;;;;19.30;57.94;97559.59;5024162;28;20057;-60
2021/10/18 12:18:02;;;;;;;10.77;7.30;;;;;;;19.25;57.55;97563.59;5024397;28;20137;-62
2021/10/18 12:20:29;;;;;;;11.23;6.30;;;;;;;19.38;57.39;97561.09;5023073;28;20053;-63
2021/10/18 12:23:05;;;;;;;8.23;5.32;;;;;;;19.17;58.42;97564.88;5022522;28;20045;-60
2021/10/18 12:25:36;;;;;;;16.27;9.27;;;;;;;19.13;58.42;97552.88;5023903;28;20061;-59
2021/10/18 12:28:44;;;;;;;11.75;7.65;;;;;;;19.21;58.56;97551.59;5025019;28;20060;-61
2021/10/18 12:31:37;;;;;;;6.57;5.55;;;;;;;19.31;56.66;97550.75;5004434;28;20068;-61
2021/10/18 12:34:20;;;;;;;6.72;5.05;;;;;;;19.51;56.24;97554.56;5023625;28;20064;-62
2021/10/18 12:37:01;;;;;;;6.32;5.13;;;;;;;19.68;55.66;97561.22;5024184;28;20057;-61
2021/10/18 12:39:42;;;;;;;13.70;8.52;;;;;;;19.39;58.15;97552.25;5024136;28;20045;-61
2021/10/18 12:42:11;;;;;;;6.60;5.85;;;;;;;19.15;57.88;97558.06;5023480;28;20156;-63
2021/10/18 12:44:40;;;;;;;7.53;5.80;;;;;;;18.00;59.13;97481.88;5022724;28;20499;-62
2021/10/18 12:47:16;;;;;;;6.60;5.72;;;;;;;18.72;59.79;97552.00;5023249;28;20432;-62